Agar, South Dakota
Current Conditions -  °F | °C
As of 5:53 PM on Monday 20 Oct 2014 (Local Time) from KPIR Reporting Station
Clear Clear  
Wind Chill: 23°   Ceiling: Unl
Heat Index: 23°   Visibility: 10mi
Dew Point:   Wind: 12mph
Humidity: 29%   Direction: 140°SE
Pressure: 29.95"   Gusts: NA
Location:  44.84°N, 100.07°W
Report Text: KPIR 202253Z AUTO 14010KT 10SM CLR 23/04 A2995 RMK AO2 SLP139 T02280039
Loading
Personal Weather Stations






























Interactive Weather Map
Tropical Storm Tracking
New forecast layout! Learn more

10-Day Weather Forecast

Advertisements
Track Severe Weather on mobile